Time;durP1;ratioP1;P1;durP2;ratioP2;P2;SDS_P1;SDS_P2;PMS_P1;PMS_P2;Temp;Humidity;BMP_temperature;BMP_pressure;BME280_temperature;BME280_humidity;BME280_pressure;Samples;Min_cycle;Max_cycle;Signal;HPM_P1;HPM_P2
2021/11/19 00:00:36;;;;;;;27.95;13.95;;;;;;;6.01;100.00;100504.91;5035788;28;19924;-66
2021/11/19 00:03:20;;;;;;;30.90;14.07;;;;;;;6.05;100.00;100496.16;5036567;28;20048;-66
2021/11/19 00:06:05;;;;;;;29.25;14.40;;;;;;;6.08;100.00;100501.16;5036706;28;20095;-66
2021/11/19 00:08:50;;;;;;;32.22;14.45;;;;;;;6.20;100.00;100503.16;5035461;28;20048;-66
2021/11/19 00:11:36;;;;;;;32.42;15.07;;;;;;;6.23;100.00;100500.44;5156104;22;20196;-67
2021/11/19 00:14:21;;;;;;;31.20;15.20;;;;;;;6.29;100.00;100495.00;5035556;28;20063;-67
2021/11/19 00:17:08;;;;;;;28.85;15.10;;;;;;;6.33;100.00;100511.94;5035528;28;20456;-67
2021/11/19 00:19:52;;;;;;;29.02;14.20;;;;;;;6.43;100.00;100510.59;5035418;28;20060;-66
2021/11/19 00:22:36;;;;;;;25.25;13.13;;;;;;;6.49;100.00;100512.03;5035153;28;20044;-64
2021/11/19 00:25:20;;;;;;;28.88;14.38;;;;;;;6.49;100.00;100515.47;5021695;28;20048;-67
2021/11/19 00:28:05;;;;;;;33.33;13.98;;;;;;;6.57;100.00;100508.19;5021086;28;20424;-65
2021/11/19 00:30:50;;;;;;;34.03;15.40;;;;;;;6.60;100.00;100507.22;5021118;28;20563;-67
2021/11/19 00:33:38;;;;;;;32.38;14.20;;;;;;;6.76;100.00;100516.66;5034901;28;20124;-67
2021/11/19 00:36:24;;;;;;;32.10;15.48;;;;;;;6.78;100.00;100502.00;5034923;28;20521;-67
2021/11/19 00:39:11;;;;;;;28.65;14.50;;;;;;;6.90;100.00;100498.84;5021453;28;20121;-67
2021/11/19 00:41:56;;;;;;;24.63;13.75;;;;;;;6.85;100.00;100495.63;5034836;28;20052;-67
2021/11/19 00:44:40;;;;;;;26.40;13.35;;;;;;;6.92;100.00;100491.00;5035866;28;20048;-67
2021/11/19 00:47:24;;;;;;;27.23;13.88;;;;;;;6.95;100.00;100503.72;5035012;28;20089;-67
2021/11/19 00:50:09;;;;;;;27.38;13.57;;;;;;;7.03;100.00;100499.03;5034970;28;20090;-67
2021/11/19 00:52:54;;;;;;;35.90;14.75;;;;;;;6.96;100.00;100505.41;5035553;28;20520;-67
2021/11/19 00:55:38;;;;;;;28.65;14.43;;;;;;;6.99;100.00;100507.81;5034364;28;20092;-67
2021/11/19 00:58:23;;;;;;;30.10;15.40;;;;;;;6.95;100.00;100504.56;5034776;28;20044;-67
2021/11/19 01:01:11;;;;;;;27.40;14.43;;;;;;;6.94;100.00;100515.78;5034538;28;20044;-67
2021/11/19 01:03:56;;;;;;;26.92;13.13;;;;;;;6.93;100.00;100510.69;5035138;28;20052;-67
2021/11/19 01:06:40;;;;;;;35.50;14.95;;;;;;;6.90;100.00;100509.13;5035482;28;20049;-67
2021/11/19 01:09:27;;;;;;;28.13;13.73;;;;;;;6.98;100.00;100511.31;5034341;28;20192;-67
2021/11/19 01:12:14;;;;;;;27.30;13.30;;;;;;;7.00;100.00;100507.75;5034253;28;20049;-67
2021/11/19 01:15:28;;;;;;;26.63;13.38;;;;;;;7.10;100.00;100505.53;5035455;28;20415;-67
2021/11/19 01:18:19;;;;;;;24.27;12.25;;;;;;;7.13;100.00;100513.94;5034215;28;20064;-67
2021/11/19 01:21:13;;;;;;;28.13;13.07;;;;;;;7.19;100.00;100516.19;5020304;28;20044;-67
2021/11/19 01:24:00;;;;;;;27.60;13.13;;;;;;;7.24;100.00;100519.38;5034337;28;20556;-64
2021/11/19 01:26:46;;;;;;;29.05;13.13;;;;;;;7.39;100.00;100521.16;5034060;28;20071;-67
2021/11/19 01:29:30;;;;;;;26.67;13.10;;;;;;;7.37;100.00;100522.97;5034290;28;20068;-67
2021/11/19 01:32:18;;;;;;;24.65;13.23;;;;;;;7.45;100.00;100520.84;5034131;28;20107;-67
2021/11/19 01:35:03;;;;;;;22.77;11.52;;;;;;;7.40;100.00;100522.81;5034020;28;20040;-67
2021/11/19 01:37:47;;;;;;;26.70;12.30;;;;;;;7.49;100.00;100524.91;5035094;28;20048;-64
2021/11/19 01:40:36;;;;;;;24.67;12.52;;;;;;;7.44;100.00;100526.91;5019921;28;20044;-66
2021/11/19 01:43:20;;;;;;;27.40;11.73;;;;;;;7.50;100.00;100521.41;5033891;28;20091;-65
2021/11/19 01:46:07;;;;;;;23.80;11.57;;;;;;;7.59;100.00;100526.09;5020001;28;20052;-67
2021/11/19 01:48:53;;;;;;;26.42;13.70;;;;;;;7.60;100.00;100523.44;5033798;28;20115;-65
2021/11/19 01:51:42;;;;;;;24.90;12.48;;;;;;;7.66;100.00;100527.44;5034527;28;20048;-67
2021/11/19 01:54:34;;;;;;;26.73;12.50;;;;;;;7.75;100.00;100521.81;5034674;28;20064;-66
2021/11/19 01:57:24;;;;;;;26.73;12.85;;;;;;;7.74;100.00;100525.31;5033615;28;20056;-66
2021/11/19 02:00:23;;;;;;;27.48;12.27;;;;;;;7.81;100.00;100526.63;5019593;28;20107;-65
2021/11/19 02:03:09;;;;;;;24.08;11.77;;;;;;;7.79;100.00;100524.16;5034184;28;20125;-67
2021/11/19 02:06:01;;;;;;;22.02;11.85;;;;;;;7.78;100.00;100529.38;5033380;28;20039;-66
2021/11/19 02:08:47;;;;;;;27.35;12.60;;;;;;;7.76;100.00;100521.72;5033223;28;20079;-67
2021/11/19 02:11:58;;;;;;;22.60;11.80;;;;;;;7.77;100.00;100517.41;5032938;28;20048;-66
2021/11/19 02:14:49;;;;;;;24.67;12.30;;;;;;;7.79;100.00;100513.84;5034317;28;20132;-67
2021/11/19 02:17:33;;;;;;;28.60;13.05;;;;;;;7.83;100.00;100515.31;5033010;28;20048;-67
2021/11/19 02:20:21;;;;;;;28.88;13.48;;;;;;;7.78;100.00;100516.47;5033453;28;20073;-66
2021/11/19 02:23:24;;;;;;;24.33;13.30;;;;;;;7.70;100.00;100508.31;5032802;28;20087;-64
2021/11/19 02:26:14;;;;;;;31.67;13.83;;;;;;;7.65;100.00;100505.19;5033238;28;20126;-67
2021/11/19 02:28:58;;;;;;;28.20;14.90;;;;;;;7.61;100.00;100509.66;5033104;28;20553;-66
2021/11/19 02:32:08;;;;;;;33.88;14.93;;;;;;;7.60;100.00;100507.16;5019318;28;20079;-65
2021/11/19 02:34:52;;;;;;;26.58;11.70;;;;;;;7.49;100.00;100509.44;5032886;28;20060;-66
2021/11/19 02:37:42;;;;;;;35.28;16.50;;;;;;;7.48;100.00;100507.78;5033040;28;20044;-67
2021/11/19 02:40:30;;;;;;;34.65;16.75;;;;;;;7.49;100.00;100511.22;5018944;28;20084;-66
2021/11/19 02:43:19;;;;;;;37.08;17.50;;;;;;;7.53;100.00;100507.56;5018780;28;20052;-65
2021/11/19 02:46:03;;;;;;;42.22;18.02;;;;;;;7.59;100.00;100511.47;5032645;28;20048;-67
2021/11/19 02:48:47;;;;;;;38.92;17.33;;;;;;;7.63;100.00;100514.72;5018814;28;20509;-66
2021/11/19 02:51:33;;;;;;;37.17;17.60;;;;;;;7.58;100.00;100503.81;5018688;28;20556;-67
2021/11/19 02:54:20;;;;;;;42.10;18.85;;;;;;;7.64;100.00;100503.50;5032605;28;20051;-67
2021/11/19 02:57:06;;;;;;;37.97;18.48;;;;;;;7.60;100.00;100502.00;5018685;28;20152;-67
2021/11/19 02:59:50;;;;;;;45.55;18.88;;;;;;;7.56;100.00;100500.50;5032671;28;20540;-66
2021/11/19 03:02:34;;;;;;;40.30;17.65;;;;;;;7.53;100.00;100505.81;5018348;28;20484;-65
2021/11/19 03:05:20;;;;;;;46.13;19.83;;;;;;;7.52;100.00;100499.00;5032844;28;20052;-66
2021/11/19 03:08:04;;;;;;;44.03;19.60;;;;;;;7.47;100.00;100511.28;5033579;28;20056;-70
2021/11/19 03:10:54;;;;;;;41.95;19.05;;;;;;;7.58;100.00;100506.41;5033551;28;20064;-66
2021/11/19 03:13:40;;;;;;;45.13;19.17;;;;;;;7.65;100.00;100516.28;5033370;28;20394;-66
2021/11/19 03:16:27;;;;;;;43.42;18.05;;;;;;;7.60;100.00;100513.16;5032316;28;20095;-66
2021/11/19 03:19:11;;;;;;;41.75;18.65;;;;;;;7.58;100.00;100511.56;5032161;28;20047;-66
2021/11/19 03:21:55;;;;;;;44.92;18.15;;;;;;;7.57;100.00;100510.75;5018212;28;20048;-66
2021/11/19 03:24:40;;;;;;;39.40;16.20;;;;;;;7.59;100.00;100505.47;5033318;28;20042;-66
2021/11/19 03:27:26;;;;;;;40.97;18.98;;;;;;;7.71;100.00;100512.56;5032325;28;20087;-66
2021/11/19 03:30:12;;;;;;;47.92;19.00;;;;;;;7.74;100.00;100520.97;5018213;28;20099;-66
2021/11/19 03:32:57;;;;;;;40.50;19.15;;;;;;;7.69;100.00;100517.81;5032193;28;20107;-67
2021/11/19 03:35:41;;;;;;;46.08;18.73;;;;;;;7.77;100.00;100519.97;5032181;28;20103;-67
2021/11/19 03:38:28;;;;;;;43.17;19.77;;;;;;;7.80;100.00;100527.53;5032338;28;20052;-65
2021/11/19 03:41:14;;;;;;;46.58;20.63;;;;;;;7.91;100.00;100512.31;5032112;28;20163;-67
2021/11/19 03:44:08;;;;;;;44.80;19.77;;;;;;;7.82;100.00;100515.44;5018233;28;20095;-66
2021/11/19 03:47:01;;;;;;;45.63;19.30;;;;;;;7.93;100.00;100513.09;5031927;28;20103;-67
2021/11/19 03:49:47;;;;;;;40.08;18.30;;;;;;;7.90;100.00;100511.50;5033370;28;20048;-67
2021/11/19 03:52:34;;;;;;;39.72;18.13;;;;;;;7.88;100.00;100517.66;5031770;28;20052;-67
2021/11/19 03:55:21;;;;;;;41.33;18.13;;;;;;;7.83;100.00;100515.31;5032779;28;20052;-67
2021/11/19 03:58:06;;;;;;;40.75;18.73;;;;;;;7.91;100.00;100520.06;5031718;28;20453;-67
2021/11/19 04:01:03;;;;;;;41.47;17.75;;;;;;;8.00;100.00;100515.25;5031813;28;20049;-66
2021/11/19 04:03:48;;;;;;;33.13;16.23;;;;;;;7.89;100.00;100524.47;5031836;28;20090;-66
2021/11/19 04:06:33;;;;;;;39.05;18.90;;;;;;;7.94;100.00;100527.66;5018116;28;20045;-66
2021/11/19 04:09:17;;;;;;;35.63;16.80;;;;;;;7.97;100.00;100532.63;5031652;28;20087;-66
2021/11/19 04:12:02;;;;;;;38.42;17.42;;;;;;;7.87;100.00;100528.88;5031633;28;20083;-67
2021/11/19 04:14:47;;;;;;;43.33;18.38;;;;;;;7.91;100.00;100525.22;5031816;28;20048;-67
2021/11/19 04:17:31;;;;;;;39.13;18.13;;;;;;;7.90;100.00;100526.13;5031867;28;20170;-66
2021/11/19 04:20:16;;;;;;;39.63;18.92;;;;;;;8.01;100.00;100527.22;5031566;28;20052;-67
2021/11/19 04:23:00;;;;;;;42.17;17.90;;;;;;;8.07;100.00;100529.50;5032733;28;20095;-67
2021/11/19 04:25:45;;;;;;;43.70;18.25;;;;;;;8.05;100.00;100527.91;5017826;28;20132;-66
2021/11/19 04:28:30;;;;;;;38.60;18.10;;;;;;;7.99;100.00;100525.63;5017742;28;20187;-67
2021/11/19 04:31:16;;;;;;;39.15;17.77;;;;;;;8.10;100.00;100525.88;5035212;28;20419;-67
2021/11/19 04:34:02;;;;;;;37.83;17.23;;;;;;;7.98;100.00;100524.81;5035166;28;20048;-66
2021/11/19 04:36:46;;;;;;;36.88;17.23;;;;;;;8.17;100.00;100519.50;5034976;28;20083;-67
2021/11/19 04:39:30;;;;;;;34.95;17.90;;;;;;;8.08;100.00;100530.31;5035224;28;20052;-67
2021/11/19 04:42:14;;;;;;;33.17;16.70;;;;;;;8.08;100.00;100530.31;5035075;28;20095;-66
2021/11/19 04:44:58;;;;;;;;;;;;;;;8.02;100.00;100528.03;5021377;28;20061;-66
2021/11/19 04:47:42;;;;;;;38.27;17.93;;;;;;;8.22;100.00;100527.81;5035270;28;20063;-67
2021/11/19 04:50:32;;;;;;;;;;;;;;;8.10;100.00;100513.00;5021544;28;20044;-67
2021/11/19 04:53:20;;;;;;;35.30;17.60;;;;;;;8.05;100.00;100515.81;5035537;28;19920;-67
2021/11/19 04:56:06;;;;;;;33.90;16.92;;;;;;;7.94;100.00;100518.16;5035819;28;20044;-63
2021/11/19 04:58:50;;;;;;;34.75;18.65;;;;;;;7.94;100.00;100518.16;5020707;28;20100;-66
2021/11/19 05:01:36;;;;;;;37.00;17.90;;;;;;;8.00;100.00;100512.69;5020623;28;20103;-67
2021/11/19 05:04:20;;;;;;;40.22;18.50;;;;;;;8.05;100.00;100504.69;5035691;28;20406;-66
2021/11/19 05:07:04;;;;;;;34.30;16.00;;;;;;;7.89;100.00;100509.00;5020922;28;20044;-67
2021/11/19 05:09:48;;;;;;;41.25;16.83;;;;;;;7.98;100.00;100508.50;5020419;28;20044;-67
2021/11/19 05:12:40;;;;;;;29.90;15.82;;;;;;;8.00;100.00;100497.22;5034223;28;20083;-67
2021/11/19 05:15:26;;;;;;;33.30;13.38;;;;;;;7.91;100.00;100499.44;5034077;28;20044;-67
2021/11/19 05:18:10;;;;;;;37.00;17.17;;;;;;;8.07;100.00;100489.97;5034519;28;20564;-67
2021/11/19 05:20:55;;;;;;;34.03;16.60;;;;;;;7.98;100.00;100490.47;5034336;28;20056;-67
2021/11/19 05:23:40;;;;;;;40.30;17.83;;;;;;;8.03;100.00;100493.66;5020316;28;20056;-67
2021/11/19 05:26:27;;;;;;;31.67;16.13;;;;;;;7.98;100.00;100493.06;5033962;28;20048;-67
2021/11/19 05:29:11;;;;;;;30.48;15.02;;;;;;;7.90;100.00;100500.34;5035879;28;20121;-66
2021/11/19 05:31:55;;;;;;;29.98;15.18;;;;;;;8.01;100.00;100498.03;5034826;28;20056;-66
2021/11/19 05:34:39;;;;;;;29.85;14.65;;;;;;;7.89;100.00;100493.53;5033854;28;20533;-67
2021/11/19 05:37:23;;;;;;;32.63;15.02;;;;;;;7.96;100.00;100500.03;5034063;28;20418;-66
2021/11/19 05:40:10;;;;;;;26.63;14.85;;;;;;;8.00;100.00;100493.78;5019832;28;20052;-67
2021/11/19 05:42:54;;;;;;;34.65;13.77;;;;;;;7.97;100.00;100504.28;5033821;28;20111;-67
2021/11/19 05:45:39;;;;;;;28.60;13.38;;;;;;;8.01;100.00;100498.03;5019898;28;20053;-67
2021/11/19 05:48:23;;;;;;;32.22;13.68;;;;;;;8.01;100.00;100509.19;5034553;28;20119;-67
2021/11/19 05:51:07;;;;;;;29.42;12.52;;;;;;;8.06;100.00;100496.06;5033579;28;20107;-67
2021/11/19 05:53:52;;;;;;;30.85;13.45;;;;;;;8.24;100.00;100501.06;5034368;28;20100;-67
2021/11/19 05:56:37;;;;;;;25.40;12.32;;;;;;;8.20;100.00;100506.47;5033332;28;20099;-67
2021/11/19 05:59:21;;;;;;;26.90;12.05;;;;;;;8.21;100.00;100505.53;5033625;28;20044;-67
2021/11/19 06:02:07;;;;;;;25.70;11.73;;;;;;;8.25;100.00;100501.91;5019366;28;20044;-67
2021/11/19 06:04:51;;;;;;;26.55;11.32;;;;;;;8.16;100.00;100497.22;5033522;28;20438;-66
2021/11/19 06:07:35;;;;;;;;;;;;;;;8.18;100.00;100505.69;5033850;28;20549;-66
2021/11/19 06:10:24;;;;;;;23.40;10.35;;;;;;;8.16;100.00;100508.34;5019277;28;19920;-66
2021/11/19 06:13:10;;;;;;;25.10;11.75;;;;;;;8.32;100.00;100505.78;5066310;22;20103;-65
2021/11/19 06:15:59;;;;;;;22.90;11.27;;;;;;;8.30;100.00;100515.34;5005541;28;20125;-65
2021/11/19 06:18:51;;;;;;;23.58;11.10;;;;;;;8.30;100.00;100523.94;5005209;28;20056;-66
2021/11/19 06:21:42;;;;;;;25.30;11.18;;;;;;;8.48;100.00;100524.66;5005075;28;20044;-64
2021/11/19 06:24:29;;;;;;;21.10;11.32;;;;;;;8.47;100.00;100523.00;4999544;28;20518;-66
2021/11/19 06:27:21;;;;;;;20.40;9.88;;;;;;;8.46;100.00;100526.50;4985616;28;20053;-65
2021/11/19 06:30:10;;;;;;;19.08;10.48;;;;;;;8.42;100.00;100525.81;5000135;28;20414;-64
2021/11/19 06:32:54;;;;;;;23.08;10.52;;;;;;;8.55;100.00;100525.97;5014007;28;20100;-65
2021/11/19 06:35:38;;;;;;;20.10;10.77;;;;;;;8.52;100.00;100526.13;5013821;28;20168;-65
2021/11/19 06:38:22;;;;;;;23.13;10.38;;;;;;;8.53;100.00;100535.53;4999093;28;20056;-64
2021/11/19 06:41:06;;;;;;;20.95;10.63;;;;;;;8.44;100.00;100534.31;5014237;28;20176;-66
2021/11/19 06:43:51;;;;;;;24.48;11.15;;;;;;;8.54;100.00;100529.47;4999035;28;20129;-66
2021/11/19 06:46:36;;;;;;;23.25;11.77;;;;;;;8.45;100.00;100535.97;4999458;28;20468;-64
2021/11/19 06:49:19;;;;;;;28.38;12.27;;;;;;;8.42;100.00;100541.31;5014034;28;20149;-66
2021/11/19 06:52:05;;;;;;;22.73;11.63;;;;;;;8.43;100.00;100542.97;4998161;28;20099;-66
2021/11/19 06:54:49;;;;;;;21.55;10.85;;;;;;;8.38;100.00;100549.28;4999053;28;20553;-64
2021/11/19 06:57:33;;;;;;;30.88;11.60;;;;;;;8.40;100.00;100547.44;4999448;28;20514;-66
2021/11/19 07:00:21;;;;;;;27.33;12.70;;;;;;;8.33;100.00;100552.13;4999002;28;20518;-64
2021/11/19 07:03:05;;;;;;;23.15;11.25;;;;;;;8.23;100.00;100550.16;4998675;28;20096;-64
2021/11/19 07:05:49;;;;;;;23.02;12.82;;;;;;;8.23;100.00;100545.81;5013632;28;20053;-64
2021/11/19 07:08:33;;;;;;;25.20;13.32;;;;;;;8.22;100.00;100551.03;4998873;28;20045;-64
2021/11/19 07:11:20;;;;;;;23.50;12.57;;;;;;;8.17;100.00;100551.25;4998680;28;20124;-66
2021/11/19 07:14:04;;;;;;;27.58;12.30;;;;;;;8.15;100.00;100562.59;5013248;28;20056;-66
2021/11/19 07:16:48;;;;;;;24.55;13.38;;;;;;;8.09;100.00;100557.75;4985067;28;20096;-64
2021/11/19 07:19:32;;;;;;;26.20;13.25;;;;;;;8.07;100.00;100562.16;4999095;28;20411;-65
2021/11/19 07:22:16;;;;;;;24.70;14.52;;;;;;;8.15;100.00;100560.00;5013566;28;20069;-66
2021/11/19 07:25:01;;;;;;;28.45;13.95;;;;;;;8.08;100.00;100564.66;4998427;28;20414;-66
2021/11/19 07:27:48;;;;;;;27.33;14.25;;;;;;;8.07;100.00;100567.31;4999021;28;20049;-64
2021/11/19 07:30:48;;;;;;;27.55;14.25;;;;;;;8.04;100.00;100570.06;4998821;28;20099;-66
2021/11/19 07:33:32;;;;;;;29.15;13.40;;;;;;;7.96;100.00;100567.88;4984660;28;20076;-66
2021/11/19 07:36:18;;;;;;;28.42;14.15;;;;;;;8.19;100.00;100569.25;5013566;28;20053;-65
2021/11/19 07:39:04;;;;;;;30.27;13.77;;;;;;;8.19;100.00;100571.84;5013586;28;20414;-65
2021/11/19 07:41:48;;;;;;;27.42;13.80;;;;;;;8.08;100.00;100572.41;4998613;28;20088;-64
2021/11/19 07:44:32;;;;;;;25.33;13.25;;;;;;;7.99;100.00;100572.03;4998314;28;20100;-62
2021/11/19 07:47:16;;;;;;;34.92;14.38;;;;;;;8.03;100.00;100569.22;4998295;28;20084;-65
2021/11/19 07:50:00;;;;;;;27.38;13.60;;;;;;;8.11;100.00;100576.53;5013262;28;20073;-62
2021/11/19 07:52:44;;;;;;;;;;;;;;;8.08;100.00;100576.72;5013485;28;20099;-64
2021/11/19 07:55:28;;;;;;;33.17;14.47;;;;;;;8.02;100.00;100587.34;5013054;28;20406;-64
2021/11/19 07:58:12;;;;;;;26.92;12.82;;;;;;;8.05;100.00;100582.84;4998457;28;20479;-66
2021/11/19 08:00:58;;;;;;;26.30;13.13;;;;;;;8.16;100.00;100580.53;4998389;28;20521;-64
2021/11/19 08:03:42;;;;;;;25.10;13.32;;;;;;;8.12;100.00;100578.19;5000291;28;20157;-65
2021/11/19 08:06:28;;;;;;;27.25;14.00;;;;;;;8.28;100.00;100579.06;5017088;28;20537;-66
2021/11/19 08:09:12;;;;;;;25.38;13.65;;;;;;;8.09;100.00;100580.94;5016875;28;20072;-66
2021/11/19 08:11:56;;;;;;;29.75;14.32;;;;;;;8.18;100.00;100580.47;5001792;28;20064;-65
2021/11/19 08:14:40;;;;;;;29.95;13.52;;;;;;;8.14;100.00;100591.84;5001955;28;20449;-65
2021/11/19 08:17:37;;;;;;;27.40;14.27;;;;;;;8.19;100.00;100585.56;5016658;28;20399;-69
2021/11/19 08:20:30;;;;;;;25.92;13.98;;;;;;;8.26;100.00;100586.88;5001460;28;20076;-70
2021/11/19 08:23:19;;;;;;;24.33;13.57;;;;;;;8.29;100.00;100580.75;5001073;28;20108;-70
2021/11/19 08:26:15;;;;;;;27.95;13.27;;;;;;;8.39;100.00;100587.06;5001435;28;20125;-70
2021/11/19 08:28:59;;;;;;;26.50;14.05;;;;;;;8.39;100.00;100597.38;5015897;28;20423;-70
2021/11/19 08:31:44;;;;;;;27.67;13.88;;;;;;;8.30;100.00;100582.41;5001312;28;20107;-68
2021/11/19 08:34:28;;;;;;;25.30;12.57;;;;;;;8.41;100.00;100586.06;5001098;28;20107;-70
2021/11/19 08:37:12;;;;;;;;;;;;;;;8.39;100.00;100602.53;5016623;28;20048;-68
2021/11/19 08:39:57;;;;;;;23.43;12.40;;;;;;;8.35;100.00;100598.47;5014694;28;19996;-70
2021/11/19 08:42:43;;;;;;;23.40;12.13;;;;;;;8.31;100.00;100607.28;5000975;28;20049;-68
2021/11/19 08:45:27;;;;;;;27.10;13.65;;;;;;;8.63;100.00;100598.59;5001107;28;20510;-69
2021/11/19 08:48:12;;;;;;;24.98;12.55;;;;;;;8.71;100.00;100599.00;5000975;28;20045;-70
2021/11/19 08:50:58;;;;;;;27.85;10.85;;;;;;;8.55;100.00;100605.97;5000570;28;20415;-70
2021/11/19 08:53:42;;;;;;;19.55;11.35;;;;;;;8.57;100.00;100611.84;5015243;28;20099;-69
2021/11/19 08:56:27;;;;;;;23.27;11.25;;;;;;;8.51;100.00;100613.03;4986863;28;20621;-69
2021/11/19 08:59:12;;;;;;;21.83;12.30;;;;;;;8.75;100.00;100603.09;5000715;28;20427;-69
2021/11/19 09:01:58;;;;;;;20.77;10.90;;;;;;;8.62;100.00;100609.84;5015505;28;20447;-69
2021/11/19 09:04:42;;;;;;;26.10;12.43;;;;;;;8.74;100.00;100604.00;5000564;28;20106;-70
2021/11/19 09:07:27;;;;;;;;;;;;;;;8.74;100.00;100612.59;5001277;28;20108;-68
2021/11/19 09:10:11;;;;;;;;;;;;;;;8.59;100.00;100610.88;5014765;28;20376;-67
2021/11/19 09:12:55;;;;;;;19.98;9.85;;;;;;;8.61;100.00;100597.84;5013838;28;19924;-70
2021/11/19 09:15:40;;;;;;;18.30;10.60;;;;;;;8.59;100.00;100610.03;4999366;28;20399;-69
2021/11/19 09:18:36;;;;;;;23.65;11.52;;;;;;;8.58;100.00;100593.69;4986411;28;20048;-70
2021/11/19 09:22:13;;;;;;;21.73;10.82;;;;;;;8.72;100.00;100591.19;5000318;28;20375;-70
2021/11/19 09:25:13;;;;;;;21.65;11.35;;;;;;;8.65;100.00;100596.78;4983848;28;20080;-69
2021/11/19 09:27:57;;;;;;;24.25;11.05;;;;;;;8.84;99.95;100594.81;4999909;28;20096;-69
2021/11/19 09:30:43;;;;;;;22.27;11.60;;;;;;;8.82;99.69;100594.09;4999921;28;20112;-69
2021/11/19 09:33:28;;;;;;;25.25;12.00;;;;;;;8.93;98.68;100599.47;4999700;28;20138;-69
2021/11/19 09:36:12;;;;;;;20.10;9.73;;;;;;;9.02;98.27;100601.53;5000048;28;20061;-69
2021/11/19 09:38:56;;;;;;;21.17;11.02;;;;;;;9.12;97.49;100593.19;5014551;28;20057;-69
2021/11/19 09:41:57;;;;;;;21.85;10.65;;;;;;;9.11;96.75;100604.44;4999828;28;20549;-69
2021/11/19 09:45:10;;;;;;;22.20;10.35;;;;;;;8.96;97.65;100604.47;5014624;28;20132;-69
2021/11/19 09:48:44;;;;;;;22.77;9.75;;;;;;;9.26;96.63;100602.72;5001280;28;20045;-69
2021/11/19 09:52:09;;;;;;;19.98;9.65;;;;;;;9.07;96.32;100608.09;4989835;28;20067;-69
2021/11/19 09:55:02;;;;;;;19.75;9.05;;;;;;;9.04;96.54;100607.44;4999326;28;20116;-68
2021/11/19 09:58:31;;;;;;;22.45;10.15;;;;;;;9.32;95.27;100607.53;5014594;28;20510;-69
2021/11/19 10:02:09;;;;;;;25.60;8.95;;;;;;;9.26;94.36;100603.53;4953731;29;20534;-69
2021/11/19 10:05:23;;;;;;;22.38;9.77;;;;;;;9.22;95.49;100606.38;4953731;29;20464;-68
2021/11/19 10:08:44;;;;;;;16.38;8.50;;;;;;;9.26;95.12;100605.31;4999123;28;20568;-69
2021/11/19 10:11:42;;;;;;;20.83;9.68;;;;;;;9.41;94.42;100607.00;4998974;28;20053;-69
2021/11/19 10:14:43;;;;;;;21.50;10.00;;;;;;;9.28;95.03;100606.88;4998786;28;20052;-68
2021/11/19 10:17:49;;;;;;;24.75;10.18;;;;;;;9.40;94.58;100603.56;5014211;28;20057;-69
2021/11/19 10:20:52;;;;;;;17.35;8.70;;;;;;;9.29;95.03;100605.94;5014071;28;20048;-68
2021/11/19 10:23:45;;;;;;;20.48;9.77;;;;;;;9.31;95.34;100600.69;4998808;28;20139;-69
2021/11/19 10:26:35;;;;;;;21.83;10.13;;;;;;;9.28;96.79;100600.88;5013392;28;20100;-69
2021/11/19 10:29:46;;;;;;;17.45;9.32;;;;;;;9.32;95.85;100592.03;4999822;28;20119;-69
2021/11/19 10:32:31;;;;;;;18.10;8.77;;;;;;;9.24;95.82;100594.22;5013782;28;20111;-66
2021/11/19 10:35:21;;;;;;;21.50;10.00;;;;;;;9.28;96.00;100587.97;4998757;28;20052;-69
2021/11/19 10:38:23;;;;;;;20.42;9.82;;;;;;;9.30;95.62;100584.38;5012257;28;20048;-69
2021/11/19 10:41:45;;;;;;;19.08;10.32;;;;;;;9.27;95.74;100578.56;5012446;28;20080;-68
2021/11/19 10:44:53;;;;;;;24.35;10.80;;;;;;;9.42;95.32;100572.47;4953090;29;20408;-69
2021/11/19 10:48:03;;;;;;;19.08;11.07;;;;;;;9.26;95.45;100580.31;4939496;29;20086;-69
2021/11/19 10:51:06;;;;;;;27.52;11.35;;;;;;;9.34;95.63;100575.53;4984740;28;20403;-69
2021/11/19 10:54:27;;;;;;;24.20;11.35;;;;;;;9.67;93.64;100570.13;5013063;28;20063;-68
2021/11/19 10:57:30;;;;;;;21.83;10.50;;;;;;;9.54;93.03;100567.44;5012822;28;20128;-68
2021/11/19 11:00:24;;;;;;;22.67;12.10;;;;;;;9.56;93.65;100569.94;5012906;28;20518;-69
2021/11/19 11:03:14;;;;;;;25.00;10.45;;;;;;;9.50;94.24;100565.13;5011855;28;20577;-69
2021/11/19 11:06:05;;;;;;;23.90;10.52;;;;;;;9.69;93.58;100568.28;5012903;28;20124;-69
2021/11/19 11:08:49;;;;;;;18.98;10.18;;;;;;;9.69;93.04;100565.69;4998162;28;20057;-68
2021/11/19 11:11:37;;;;;;;28.05;10.90;;;;;;;9.97;92.89;100563.91;4998248;28;20104;-69
2021/11/19 11:14:22;;;;;;;20.88;10.80;;;;;;;10.03;91.49;100565.31;4997870;28;20549;-69
2021/11/19 11:17:34;;;;;;;22.20;10.75;;;;;;;10.03;90.78;100555.81;5013046;28;20049;-69
2021/11/19 11:20:56;;;;;;;22.45;10.30;;;;;;;9.60;93.55;100550.72;4997921;28;20065;-69
2021/11/19 11:23:43;;;;;;;13.75;7.05;;;;;;;9.49;94.60;100548.78;4997779;28;20132;-68
2021/11/19 11:26:37;;;;;;;22.95;9.95;;;;;;;9.40;95.94;100544.16;5012660;28;20076;-69
2021/11/19 11:29:33;;;;;;;19.90;11.90;;;;;;;9.63;95.42;100543.63;5012719;28;20049;-69
2021/11/19 11:32:31;;;;;;;19.13;9.77;;;;;;;9.58;96.18;100537.88;5012601;28;20045;-68
2021/11/19 11:35:28;;;;;;;22.25;11.00;;;;;;;9.76;95.11;100536.78;5012508;28;20048;-68
2021/11/19 11:38:42;;;;;;;31.88;10.63;;;;;;;9.62;94.71;100536.81;4998943;28;20384;-68
2021/11/19 11:41:58;;;;;;;20.55;11.25;;;;;;;9.63;95.22;100540.19;5016641;28;20522;-69
2021/11/19 11:44:49;;;;;;;20.80;10.00;;;;;;;9.58;96.28;100535.31;5016677;28;20108;-68
2021/11/19 11:47:56;;;;;;;19.30;10.77;;;;;;;9.82;94.88;100530.41;4987745;28;20096;-69
2021/11/19 11:51:10;;;;;;;16.98;10.88;;;;;;;9.76;95.58;100530.78;5016395;28;20096;-67
2021/11/19 11:54:28;;;;;;;19.30;10.85;;;;;;;9.85;94.74;100527.63;4987586;28;20053;-69
2021/11/19 11:57:35;;;;;;;18.55;10.93;;;;;;;9.98;93.80;100531.13;5016502;28;20057;-69
2021/11/19 12:00:35;;;;;;;23.40;12.30;;;;;;;10.23;92.86;100514.03;5015119;28;20100;-63
2021/11/19 12:03:41;;;;;;;21.90;11.85;;;;;;;10.12;92.81;100513.03;5015067;28;20095;-61
2021/11/19 12:06:36;;;;;;;23.13;12.25;;;;;;;9.94;94.13;100514.13;5016532;28;20056;-65
2021/11/19 12:09:26;;;;;;;20.35;11.40;;;;;;;10.01;93.88;100515.44;5016288;28;20470;-58
2021/11/19 12:12:36;;;;;;;20.92;10.60;;;;;;;10.14;93.11;100513.75;5001297;28;20045;-63
2021/11/19 12:15:32;;;;;;;20.38;11.98;;;;;;;10.01;94.29;100512.84;4987372;28;20049;-62
2021/11/19 12:18:32;;;;;;;19.88;11.82;;;;;;;10.03;93.91;100509.28;5001278;28;20088;-61
2021/11/19 12:21:25;;;;;;;19.42;11.77;;;;;;;10.09;93.99;100503.69;5001236;28;20505;-62
2021/11/19 12:24:40;;;;;;;20.63;12.25;;;;;;;10.00;93.57;100513.78;5001364;28;20041;-63
2021/11/19 12:28:10;;;;;;;22.20;11.95;;;;;;;9.91;94.50;100504.00;5000923;28;20049;-62
2021/11/19 12:31:03;;;;;;;21.45;12.02;;;;;;;9.79;95.74;100502.16;4955369;29;20404;-63
2021/11/19 12:33:50;;;;;;;22.83;12.35;;;;;;;9.70;96.55;100503.53;5000652;28;20479;-62
2021/11/19 12:36:41;;;;;;;23.25;12.68;;;;;;;9.81;96.19;100502.91;5000870;28;20048;-62
2021/11/19 12:39:26;;;;;;;28.77;12.75;;;;;;;9.91;95.42;100493.66;5000994;28;20048;-63
2021/11/19 12:42:19;;;;;;;23.52;13.02;;;;;;;9.91;95.32;100491.88;5000894;28;20137;-62
2021/11/19 12:45:22;;;;;;;24.83;12.90;;;;;;;10.05;94.98;100480.72;5000697;28;20061;-63
2021/11/19 12:48:34;;;;;;;17.90;10.95;;;;;;;10.04;93.56;100499.75;5000684;28;20044;-62
2021/11/19 12:51:26;;;;;;;20.05;12.02;;;;;;;9.92;94.55;100495.31;4999793;28;20044;-62
2021/11/19 12:54:28;;;;;;;22.98;11.65;;;;;;;9.83;95.57;100490.69;5000263;28;20041;-58
2021/11/19 12:57:47;;;;;;;21.15;12.15;;;;;;;9.83;96.03;100490.69;5000450;28;20040;-61
2021/11/19 13:00:37;;;;;;;22.17;11.98;;;;;;;10.10;95.30;100481.25;5000663;28;20506;-63